createdAt,value
2019-05-31T00:00:46.619Z,6.53
2019-05-31T00:03:12.688Z,6.63
2019-05-31T00:05:38.761Z,6.25
2019-05-31T00:08:04.812Z,5.87
2019-05-31T00:10:30.893Z,6.37
2019-05-31T00:12:57.831Z,5.75
2019-05-31T00:15:24.212Z,6.45
2019-05-31T00:17:50.294Z,5.70
2019-05-31T00:20:16.667Z,6.20
2019-05-31T00:22:42.720Z,5.70
2019-05-31T00:25:09.092Z,5.85
2019-05-31T00:27:35.363Z,6.12
2019-05-31T00:30:03.763Z,6.20
2019-05-31T00:32:30.008Z,6.37
2019-05-31T00:34:56.386Z,6.30
2019-05-31T00:37:22.642Z,6.33
2019-05-31T00:39:48.695Z,6.30
2019-05-31T00:42:14.762Z,6.62
2019-05-31T00:44:40.839Z,7.00
2019-05-31T00:47:06.893Z,6.60
2019-05-31T00:49:32.971Z,6.15
2019-05-31T00:51:59.963Z,5.63
2019-05-31T00:54:26.187Z,6.00
2019-05-31T00:56:52.259Z,6.17
2019-05-31T00:59:18.320Z,6.53
2019-05-31T01:01:44.381Z,7.63
2019-05-31T01:04:10.452Z,6.70
2019-05-31T01:06:36.502Z,6.60
2019-05-31T01:09:05.504Z,6.70
2019-05-31T01:11:31.638Z,8.10
2019-05-31T01:13:57.783Z,6.97
2019-05-31T01:16:23.854Z,7.67
2019-05-31T01:18:49.920Z,7.60
2019-05-31T01:21:16.301Z,8.80
2019-05-31T01:23:42.365Z,8.50
2019-05-31T01:26:09.455Z,7.80
2019-05-31T01:28:35.712Z,8.27
2019-05-31T01:31:01.763Z,9.07
2019-05-31T01:33:27.843Z,8.33
2019-05-31T01:35:53.905Z,8.13
2019-05-31T01:38:19.977Z,9.03
2019-05-31T01:40:46.053Z,9.07
2019-05-31T01:43:14.436Z,8.70
2019-05-31T01:45:40.355Z,9.40
2019-05-31T01:48:07.690Z,8.00
2019-05-31T01:50:33.884Z,9.50
2019-05-31T01:52:59.959Z,9.20
2019-05-31T01:55:26.012Z,9.07
2019-05-31T01:57:52.082Z,9.60
2019-05-31T02:00:18.647Z,8.40
2019-05-31T02:02:44.718Z,9.67
2019-05-31T02:05:12.408Z,9.27
2019-05-31T02:07:38.552Z,9.13
2019-05-31T02:10:06.721Z,8.00
2019-05-31T02:12:32.881Z,9.00
2019-05-31T02:14:58.944Z,7.53
2019-05-31T02:17:25.008Z,8.53
2019-05-31T02:19:51.084Z,9.20
2019-05-31T02:22:17.143Z,8.10
2019-05-31T02:24:43.207Z,9.23
2019-05-31T02:27:09.299Z,8.20
2019-05-31T02:29:35.347Z,8.53
2019-05-31T02:32:01.415Z,9.03
2019-05-31T02:34:27.470Z,8.03
2019-05-31T02:36:53.662Z,8.83
2019-05-31T02:39:19.813Z,8.60
2019-05-31T02:41:45.868Z,9.27
2019-05-31T02:44:13.456Z,10.20
2019-05-31T02:46:40.010Z,9.10
2019-05-31T02:49:07.905Z,9.70
2019-05-31T02:51:34.138Z,9.90
2019-05-31T02:54:00.399Z,9.03
2019-05-31T02:56:27.553Z,10.10
2019-05-31T02:58:54.028Z,9.43
2019-05-31T03:01:22.382Z,10.30
2019-05-31T03:03:50.835Z,9.47
2019-05-31T03:06:18.367Z,10.20
2019-05-31T03:08:45.164Z,8.73
2019-05-31T03:11:12.556Z,9.47
2019-05-31T03:13:41.505Z,9.80
2019-05-31T03:16:11.220Z,9.10
2019-05-31T03:18:38.029Z,9.30
2019-05-31T03:21:04.089Z,9.40
2019-05-31T03:23:30.155Z,10.30
2019-05-31T03:25:56.209Z,9.33
2019-05-31T03:28:24.340Z,9.97
2019-05-31T03:30:50.299Z,9.00
2019-05-31T03:33:20.204Z,9.60
2019-05-31T03:35:44.376Z,9.07
2019-05-31T03:38:10.437Z,9.63
2019-05-31T03:40:36.505Z,9.40
2019-05-31T03:43:02.662Z,9.80
2019-05-31T03:45:28.743Z,8.83
2019-05-31T03:47:54.785Z,10.40
2019-05-31T03:50:22.953Z,9.13
2019-05-31T03:52:48.935Z,10.30
2019-05-31T03:55:17.262Z,10.00
2019-05-31T03:57:43.230Z,9.30
2019-05-31T04:00:09.772Z,10.13
2019-05-31T04:02:35.932Z,9.77
2019-05-31T04:05:04.600Z,9.77
2019-05-31T04:07:30.669Z,9.50
2019-05-31T04:09:56.718Z,8.97
2019-05-31T04:12:24.358Z,9.27
2019-05-31T04:14:50.749Z,9.50
2019-05-31T04:17:17.171Z,8.83
2019-05-31T04:19:43.483Z,10.00
2019-05-31T04:22:09.543Z,9.07
2019-05-31T04:24:35.609Z,8.80
2019-05-31T04:27:01.670Z,9.60
2019-05-31T04:29:27.826Z,8.83
2019-05-31T04:31:53.903Z,9.50
2019-05-31T04:34:20.263Z,8.60
2019-05-31T04:36:46.823Z,8.93
2019-05-31T04:39:12.905Z,10.10
2019-05-31T04:41:39.052Z,8.63
2019-05-31T04:44:05.111Z,8.70
2019-05-31T04:46:31.197Z,8.20
2019-05-31T04:48:57.254Z,8.67
2019-05-31T04:51:24.326Z,9.23
2019-05-31T04:53:50.582Z,10.10
2019-05-31T04:56:18.584Z,9.77
2019-05-31T04:58:44.788Z,9.03
2019-05-31T05:01:10.909Z,8.17
2019-05-31T05:03:37.073Z,8.90
2019-05-31T05:06:03.271Z,7.90
2019-05-31T05:08:29.389Z,8.80
2019-05-31T05:10:55.452Z,8.70
2019-05-31T05:13:22.599Z,7.90
2019-05-31T05:15:48.876Z,8.67
2019-05-31T05:18:16.551Z,9.50
2019-05-31T05:20:42.809Z,8.57
2019-05-31T05:23:08.884Z,8.87
2019-05-31T05:25:34.951Z,10.27
2019-05-31T05:28:01.024Z,9.33
2019-05-31T05:30:27.745Z,9.50
2019-05-31T05:32:53.951Z,8.30
2019-05-31T05:35:20.247Z,9.10
2019-05-31T05:37:46.480Z,9.47
2019-05-31T05:40:12.859Z,9.50
2019-05-31T05:42:38.908Z,9.00
2019-05-31T05:45:05.681Z,9.17
2019-05-31T05:47:46.633Z,9.30
2019-05-31T05:49:59.855Z,8.93
2019-05-31T05:52:26.166Z,9.40
2019-05-31T05:54:52.303Z,9.30
2019-05-31T05:57:18.373Z,8.50
2019-05-31T05:59:44.443Z,9.40
2019-05-31T06:02:10.506Z,8.57
2019-05-31T06:04:36.551Z,8.63
2019-05-31T06:07:02.724Z,8.77
2019-05-31T06:09:28.791Z,9.37
2019-05-31T06:11:54.836Z,9.20
2019-05-31T06:14:21.548Z,9.23
2019-05-31T06:17:01.063Z,9.90
2019-05-31T06:19:15.768Z,8.87
2019-05-31T06:21:41.849Z,7.90
2019-05-31T06:24:08.000Z,10.60
2019-05-31T06:26:34.055Z,8.80
2019-05-31T06:29:00.156Z,9.03
2019-05-31T06:31:26.768Z,9.50
2019-05-31T06:33:52.966Z,9.43
2019-05-31T06:36:19.144Z,9.10
2019-05-31T06:38:45.199Z,9.10
2019-05-31T06:41:11.298Z,10.20
2019-05-31T06:43:37.533Z,11.20
2019-05-31T06:46:03.822Z,8.80
2019-05-31T06:48:29.882Z,8.00
2019-05-31T06:50:55.944Z,7.87
2019-05-31T06:53:22.025Z,9.90
2019-05-31T06:55:50.178Z,9.90
2019-05-31T06:58:16.050Z,10.63
2019-05-31T07:00:42.117Z,10.27
2019-05-31T07:03:08.172Z,9.13
2019-05-31T07:05:34.245Z,9.20
2019-05-31T07:08:00.333Z,8.30
2019-05-31T07:10:27.336Z,10.90
2019-05-31T07:12:53.656Z,9.50
2019-05-31T07:15:20.039Z,10.30
2019-05-31T07:17:54.706Z,9.20
2019-05-31T07:20:14.560Z,8.40
2019-05-31T07:22:40.615Z,9.67
2019-05-31T07:25:07.176Z,10.03
2019-05-31T07:27:33.248Z,9.73
2019-05-31T07:29:59.397Z,8.60
2019-05-31T07:32:25.558Z,8.90
2019-05-31T07:34:51.628Z,9.40
2019-05-31T07:37:30.859Z,9.23
2019-05-31T07:39:45.690Z,9.47
2019-05-31T07:42:12.019Z,8.60
2019-05-31T07:44:39.272Z,8.10
2019-05-31T07:47:08.369Z,8.67
2019-05-31T07:49:33.960Z,9.03
2019-05-31T07:52:00.086Z,8.10
2019-05-31T07:54:26.136Z,9.47
2019-05-31T07:56:52.200Z,7.83
2019-05-31T07:59:18.251Z,9.23
2019-05-31T08:01:44.299Z,9.47
2019-05-31T08:04:10.359Z,9.73
2019-05-31T08:06:38.566Z,8.90
2019-05-31T08:09:06.374Z,9.00
2019-05-31T08:11:33.252Z,8.90
2019-05-31T08:13:59.510Z,8.40
2019-05-31T08:16:25.581Z,9.90
2019-05-31T08:18:51.659Z,8.30
2019-05-31T08:21:17.723Z,9.30
2019-05-31T08:23:43.885Z,9.10
2019-05-31T08:26:25.215Z,9.53
2019-05-31T08:28:37.916Z,11.30
2019-05-31T08:31:04.085Z,9.50
2019-05-31T08:33:30.242Z,10.30
2019-05-31T08:35:56.299Z,8.90
2019-05-31T08:38:22.386Z,10.90
2019-05-31T08:40:48.444Z,9.80
2019-05-31T08:43:14.491Z,9.20
2019-05-31T08:45:40.844Z,10.70
2019-05-31T08:48:06.958Z,10.10
2019-05-31T08:50:33.186Z,9.77
2019-05-31T08:52:59.765Z,10.00
2019-05-31T08:55:27.092Z,9.63
2019-05-31T08:57:53.376Z,9.57
2019-05-31T09:00:19.824Z,8.80
2019-05-31T09:02:45.888Z,8.10
2019-05-31T09:05:12.249Z,9.43
2019-05-31T09:07:39.646Z,8.90
2019-05-31T09:10:07.088Z,9.30
2019-05-31T09:12:34.236Z,9.20
2019-05-31T09:15:00.407Z,9.60
2019-05-31T09:17:26.470Z,10.00
2019-05-31T09:19:59.346Z,10.10
2019-05-31T09:22:20.492Z,10.27
2019-05-31T09:24:46.544Z,9.53
2019-05-31T09:27:12.607Z,10.60
2019-05-31T09:30:04.818Z,10.37
2019-05-31T09:32:06.722Z,9.30
2019-05-31T09:34:33.154Z,8.63
2019-05-31T09:36:59.340Z,8.67
2019-05-31T09:39:25.407Z,9.57
2019-05-31T09:41:51.460Z,10.70
2019-05-31T09:44:17.525Z,10.20
2019-05-31T09:46:43.585Z,10.40
2019-05-31T09:49:09.644Z,9.60
2019-05-31T09:51:37.106Z,9.80
2019-05-31T09:54:03.735Z,10.33
2019-05-31T09:56:29.821Z,11.10
2019-05-31T09:58:55.903Z,10.37
2019-05-31T10:01:21.964Z,9.47
2019-05-31T10:03:48.393Z,10.80
2019-05-31T10:06:14.822Z,10.00
2019-05-31T10:08:45.458Z,9.87
2019-05-31T10:11:10.516Z,10.50
2019-05-31T10:13:36.938Z,8.73
2019-05-31T10:16:03.359Z,10.77
2019-05-31T10:18:29.822Z,9.73
2019-05-31T10:20:56.327Z,9.63
2019-05-31T10:23:32.327Z,10.20
2019-05-31T10:25:51.067Z,9.23
2019-05-31T10:28:17.496Z,9.73
2019-05-31T10:30:43.919Z,9.20
2019-05-31T10:33:10.357Z,9.80
2019-05-31T10:35:38.344Z,10.07
2019-05-31T10:38:05.022Z,8.97
2019-05-31T10:40:31.431Z,8.90
2019-05-31T10:42:57.852Z,9.53
2019-05-31T10:45:24.381Z,9.33
2019-05-31T10:47:50.460Z,9.30
2019-05-31T10:50:16.815Z,9.83
2019-05-31T10:52:44.623Z,9.27
2019-05-31T10:55:11.156Z,9.83
2019-05-31T10:57:38.439Z,9.50
2019-05-31T11:00:10.742Z,8.40
2019-05-31T11:02:38.386Z,8.77
2019-05-31T11:05:05.238Z,9.37
2019-05-31T11:07:31.373Z,10.30
2019-05-31T11:09:57.423Z,8.90
2019-05-31T11:12:23.481Z,8.83
2019-05-31T11:14:49.545Z,9.60
2019-05-31T11:17:15.975Z,9.57
2019-05-31T11:20:02.208Z,10.40
2019-05-31T11:22:10.756Z,9.57
2019-05-31T11:24:37.172Z,9.13
2019-05-31T11:27:03.774Z,9.90
2019-05-31T11:29:30.056Z,9.50
2019-05-31T11:31:56.137Z,8.90
2019-05-31T11:34:22.243Z,8.80
2019-05-31T11:37:08.176Z,7.80
2019-05-31T11:39:34.610Z,8.33
2019-05-31T11:42:01.072Z,8.47
2019-05-31T11:44:27.506Z,8.23
2019-05-31T11:46:53.960Z,7.73
2019-05-31T11:49:20.481Z,6.70
2019-05-31T11:51:47.139Z,8.00
2019-05-31T11:54:13.661Z,8.30
2019-05-31T11:56:41.820Z,8.50
2019-05-31T11:59:08.405Z,8.40
2019-05-31T12:01:34.846Z,7.50
2019-05-31T12:04:01.260Z,8.57
2019-05-31T12:06:27.696Z,8.37
2019-05-31T12:08:54.119Z,9.33
2019-05-31T12:11:20.546Z,7.40
2019-05-31T12:13:48.910Z,9.47
2019-05-31T12:16:15.395Z,9.87
2019-05-31T12:18:43.272Z,7.97
2019-05-31T12:21:10.338Z,7.97
2019-05-31T12:23:36.769Z,7.50
2019-05-31T12:26:03.257Z,6.87
2019-05-31T12:28:29.708Z,7.03
2019-05-31T12:30:56.236Z,6.90
2019-05-31T12:33:23.206Z,7.90
2019-05-31T12:35:50.419Z,6.40
2019-05-31T12:38:17.220Z,6.50
2019-05-31T12:40:52.064Z,6.77
2019-05-31T12:43:12.349Z,6.80
2019-05-31T12:45:39.905Z,8.00
2019-05-31T12:48:06.655Z,6.63
2019-05-31T12:50:33.323Z,6.70
2019-05-31T12:52:59.787Z,6.10
2019-05-31T12:55:26.285Z,6.33
2019-05-31T12:57:52.764Z,5.20
2019-05-31T13:00:19.435Z,7.00
2019-05-31T13:02:51.846Z,6.83
2019-05-31T13:05:14.677Z,5.83
2019-05-31T13:07:42.003Z,6.60
2019-05-31T13:10:09.358Z,8.33
2019-05-31T13:12:36.025Z,8.43
2019-05-31T13:15:06.592Z,7.33
2019-05-31T13:17:33.161Z,10.33
2019-05-31T13:19:59.629Z,9.43
2019-05-31T13:22:26.121Z,8.90
2019-05-31T13:24:54.317Z,7.60
2019-05-31T13:27:20.976Z,9.43
2019-05-31T13:29:48.304Z,7.73
2019-05-31T13:32:14.868Z,5.93
2019-05-31T13:34:41.386Z,6.67
2019-05-31T13:37:07.859Z,8.37
2019-05-31T13:39:34.741Z,8.27
2019-05-31T13:42:01.369Z,9.60
2019-05-31T13:44:27.904Z,8.20
2019-05-31T13:46:54.378Z,8.77
2019-05-31T13:49:20.892Z,6.60
2019-05-31T13:51:48.582Z,6.07
2019-05-31T13:54:19.247Z,8.10
2019-05-31T13:56:46.836Z,7.50
2019-05-31T13:59:13.537Z,8.53
2019-05-31T14:01:40.069Z,6.70
2019-05-31T14:04:06.551Z,7.73
2019-05-31T14:06:33.080Z,6.73
2019-05-31T14:08:59.556Z,6.47
2019-05-31T14:11:26.141Z,5.67
2019-05-31T14:13:52.609Z,5.60
2019-05-31T14:16:19.120Z,6.57
2019-05-31T14:18:45.621Z,6.13
2019-05-31T14:21:12.208Z,6.13
2019-05-31T14:23:38.680Z,7.80
2019-05-31T14:26:05.161Z,7.43
2019-05-31T14:28:31.738Z,7.23
2019-05-31T14:30:58.657Z,6.57
2019-05-31T14:33:25.265Z,6.90
2019-05-31T14:35:52.219Z,6.40
2019-05-31T14:38:18.748Z,5.57
2019-05-31T14:40:45.216Z,5.77
2019-05-31T14:43:11.708Z,6.73
2019-05-31T14:45:38.183Z,6.07
2019-05-31T14:48:04.673Z,5.60
2019-05-31T14:50:31.157Z,7.23
2019-05-31T14:53:08.126Z,7.40
2019-05-31T14:55:26.027Z,6.53
2019-05-31T14:57:53.622Z,6.00
2019-05-31T15:00:36.365Z,6.33
2019-05-31T15:03:03.256Z,6.80
2019-05-31T15:05:30.182Z,7.70
2019-05-31T15:07:57.617Z,9.37
2019-05-31T15:10:24.647Z,8.80
2019-05-31T15:12:51.684Z,5.80
2019-05-31T15:15:18.323Z,6.53
2019-05-31T15:17:44.813Z,6.90
2019-05-31T15:20:11.398Z,6.27
2019-05-31T15:22:37.957Z,6.93
2019-05-31T15:25:08.051Z,6.53
2019-05-31T15:27:35.170Z,6.10
2019-05-31T15:30:01.878Z,8.30
2019-05-31T15:32:39.756Z,6.23
2019-05-31T15:35:07.724Z,6.50
2019-05-31T15:37:34.280Z,6.57
2019-05-31T15:40:05.606Z,6.40
2019-05-31T15:42:40.038Z,5.50
2019-05-31T15:45:07.326Z,7.23
2019-05-31T15:47:33.794Z,7.10
2019-05-31T15:50:01.330Z,5.90
2019-05-31T15:52:28.683Z,5.77
2019-05-31T15:55:07.797Z,5.97
2019-05-31T15:57:24.392Z,7.43
2019-05-31T15:59:50.955Z,5.63
2019-05-31T16:02:24.669Z,5.43
2019-05-31T16:04:45.895Z,5.93
2019-05-31T16:07:12.372Z,5.20
2019-05-31T16:09:38.865Z,7.90
2019-05-31T16:12:05.493Z,7.00
2019-05-31T16:14:32.162Z,6.80
2019-05-31T16:16:59.118Z,6.70
2019-05-31T16:19:25.680Z,6.93
2019-05-31T16:21:52.576Z,5.50
2019-05-31T16:24:19.315Z,5.67
2019-05-31T16:26:46.033Z,5.20
2019-05-31T16:29:13.470Z,5.00
2019-05-31T16:31:40.267Z,5.80
2019-05-31T16:34:08.635Z,5.20
2019-05-31T16:36:35.287Z,7.00
2019-05-31T16:39:03.663Z,6.53
2019-05-31T16:41:30.658Z,5.93
2019-05-31T16:43:57.365Z,7.77
2019-05-31T16:46:24.599Z,4.90
2019-05-31T16:48:51.218Z,6.13
2019-05-31T16:51:17.692Z,4.60
2019-05-31T16:53:44.548Z,4.73
2019-05-31T16:56:11.007Z,4.30
2019-05-31T16:58:37.485Z,4.73
2019-05-31T17:01:04.663Z,5.13
2019-05-31T17:03:32.351Z,5.20
2019-05-31T17:05:58.859Z,5.10
2019-05-31T17:08:25.644Z,5.10
2019-05-31T17:10:52.127Z,6.10
2019-05-31T17:13:19.438Z,4.80
2019-05-31T17:15:46.003Z,5.80
2019-05-31T17:18:13.355Z,5.53
2019-05-31T17:20:39.906Z,5.30
2019-05-31T17:23:06.903Z,4.60
2019-05-31T17:25:33.423Z,5.40
2019-05-31T17:27:59.910Z,4.53
2019-05-31T17:30:33.750Z,5.20
2019-05-31T17:33:00.289Z,4.30
2019-05-31T17:35:26.771Z,4.70
2019-05-31T17:37:53.243Z,4.33
2019-05-31T17:40:19.715Z,4.33
2019-05-31T17:42:46.183Z,5.33
2019-05-31T17:45:12.808Z,4.73
2019-05-31T17:47:39.336Z,4.27
2019-05-31T17:50:06.680Z,4.80
2019-05-31T17:52:33.663Z,4.80
2019-05-31T17:55:00.179Z,4.70
2019-05-31T17:57:42.702Z,4.60
2019-05-31T17:59:55.049Z,4.93
2019-05-31T18:02:21.532Z,5.10
2019-05-31T18:04:48.025Z,5.40
2019-05-31T18:07:14.504Z,4.80
2019-05-31T18:09:40.992Z,4.40
2019-05-31T18:12:08.855Z,4.53
2019-05-31T18:14:35.460Z,4.07
2019-05-31T18:17:01.931Z,4.80
2019-05-31T18:19:28.419Z,5.30
2019-05-31T18:21:57.692Z,5.10
2019-05-31T18:24:23.272Z,5.23
2019-05-31T18:26:49.762Z,4.30
2019-05-31T18:29:16.394Z,4.27
2019-05-31T18:31:43.023Z,5.43
2019-05-31T18:34:10.201Z,5.40
2019-05-31T18:36:36.791Z,4.20
2019-05-31T18:39:05.167Z,5.90
2019-05-31T18:41:31.656Z,5.63
2019-05-31T18:43:58.145Z,5.83
2019-05-31T18:46:24.623Z,5.53
2019-05-31T18:48:51.095Z,6.53
2019-05-31T18:51:18.088Z,5.80
2019-05-31T18:53:44.661Z,5.73
2019-05-31T18:56:11.450Z,6.30
2019-05-31T18:58:38.114Z,9.67
2019-05-31T19:01:04.611Z,11.40
2019-05-31T19:03:31.067Z,10.67
2019-05-31T19:05:57.240Z,8.50
2019-05-31T19:08:23.287Z,7.43
2019-05-31T19:10:49.344Z,7.60
2019-05-31T19:13:15.703Z,5.77
2019-05-31T19:15:42.303Z,6.03
2019-05-31T19:18:08.394Z,5.80
2019-05-31T19:20:34.641Z,5.60
2019-05-31T19:23:00.693Z,5.80
2019-05-31T19:25:27.189Z,5.77
2019-05-31T19:27:53.240Z,5.80
2019-05-31T19:30:36.868Z,5.90
2019-05-31T19:33:03.737Z,6.60
2019-05-31T19:35:29.992Z,6.57
2019-05-31T19:37:56.741Z,7.43
2019-05-31T19:40:23.240Z,7.00
2019-05-31T19:42:49.315Z,7.40
2019-05-31T19:45:16.518Z,7.00
2019-05-31T19:47:42.776Z,6.37
2019-05-31T19:50:09.297Z,6.00
2019-05-31T19:52:35.708Z,6.87
2019-05-31T19:55:02.935Z,6.07
2019-05-31T19:57:29.582Z,7.80
2019-05-31T19:59:56.068Z,7.50
2019-05-31T20:02:23.470Z,7.33
2019-05-31T20:04:50.119Z,7.07
2019-05-31T20:07:17.565Z,7.90
2019-05-31T20:09:44.165Z,7.47
2019-05-31T20:12:10.601Z,7.87
2019-05-31T20:14:37.025Z,7.33
2019-05-31T20:17:11.043Z,7.17
2019-05-31T20:19:31.411Z,7.60
2019-05-31T20:21:57.503Z,7.13
2019-05-31T20:24:26.521Z,7.37
2019-05-31T20:26:51.603Z,7.57
2019-05-31T20:29:23.046Z,7.60
2019-05-31T20:31:45.691Z,7.90
2019-05-31T20:34:11.821Z,8.27
2019-05-31T20:36:37.880Z,7.87
2019-05-31T20:39:06.065Z,7.30
2019-05-31T20:41:41.440Z,7.73
2019-05-31T20:44:00.067Z,7.60
2019-05-31T20:46:26.891Z,7.27
2019-05-31T20:48:55.836Z,7.37
2019-05-31T20:51:21.118Z,7.80
2019-05-31T20:53:47.227Z,7.10
2019-05-31T20:56:13.272Z,7.60
2019-05-31T20:58:43.781Z,7.67
2019-05-31T21:01:07.301Z,7.57
2019-05-31T21:03:33.351Z,8.00
2019-05-31T21:05:59.403Z,7.20
2019-05-31T21:08:25.585Z,7.97
2019-05-31T21:10:51.680Z,6.70
2019-05-31T21:13:17.736Z,7.80
2019-05-31T21:15:43.809Z,7.50
2019-05-31T21:18:09.863Z,7.80
2019-05-31T21:20:35.928Z,7.57
2019-05-31T21:23:01.982Z,8.37
2019-05-31T21:25:28.883Z,8.20
2019-05-31T21:27:55.111Z,9.07
2019-05-31T21:30:21.458Z,8.37
2019-05-31T21:32:47.544Z,9.20
2019-05-31T21:35:14.063Z,8.27
2019-05-31T21:37:40.511Z,8.27
2019-05-31T21:40:08.331Z,8.53
2019-05-31T21:42:34.496Z,8.40
2019-05-31T21:45:00.915Z,10.50
2019-05-31T21:47:27.602Z,8.73
2019-05-31T21:49:54.180Z,9.80
2019-05-31T21:52:20.610Z,10.03
2019-05-31T21:54:47.033Z,9.30
2019-05-31T21:57:13.472Z,10.17
2019-05-31T21:59:39.891Z,10.93
2019-05-31T22:02:06.042Z,10.40
2019-05-31T22:04:33.318Z,9.93
2019-05-31T22:07:00.308Z,10.00
2019-05-31T22:09:26.732Z,10.60
2019-05-31T22:11:53.157Z,10.30
2019-05-31T22:14:19.582Z,11.07
2019-05-31T22:16:46.003Z,9.40
2019-05-31T22:19:12.441Z,11.13
2019-05-31T22:21:38.865Z,10.40
2019-05-31T22:24:05.296Z,9.77
2019-05-31T22:26:32.638Z,11.53
2019-05-31T22:28:59.259Z,11.13
2019-05-31T22:31:27.592Z,11.00
2019-05-31T22:33:54.040Z,11.87
2019-05-31T22:36:20.107Z,11.20
2019-05-31T22:38:46.247Z,12.40
2019-05-31T22:41:12.308Z,12.10
2019-05-31T22:43:38.844Z,12.37
2019-05-31T22:46:05.032Z,11.90
2019-05-31T22:48:31.117Z,12.17
2019-05-31T22:50:57.172Z,10.60
2019-05-31T22:53:23.232Z,11.40
2019-05-31T22:55:49.294Z,12.57
2019-05-31T22:58:15.351Z,11.60
2019-05-31T23:00:42.459Z,10.83
2019-05-31T23:03:08.608Z,11.70
2019-05-31T23:05:34.749Z,11.20
2019-05-31T23:08:00.836Z,11.80
2019-05-31T23:10:26.903Z,12.23
2019-05-31T23:13:00.795Z,11.73
2019-05-31T23:15:20.928Z,12.27
2019-05-31T23:17:47.357Z,11.50
2019-05-31T23:20:13.585Z,12.07
2019-05-31T23:22:39.668Z,11.27
2019-05-31T23:25:07.011Z,11.73
2019-05-31T23:27:35.428Z,11.80
2019-05-31T23:30:05.908Z,12.40
2019-05-31T23:32:31.989Z,13.27
2019-05-31T23:34:58.048Z,12.23
2019-05-31T23:37:24.136Z,13.23
2019-05-31T23:39:50.212Z,10.93
2019-05-31T23:42:16.279Z,11.80
2019-05-31T23:44:42.664Z,11.97
2019-05-31T23:47:08.799Z,11.77
2019-05-31T23:49:34.868Z,11.70
2019-05-31T23:52:00.940Z,11.57
2019-05-31T23:54:27.000Z,12.40
2019-05-31T23:56:53.059Z,12.50
2019-05-31T23:59:19.132Z,12.73
